sensor_id;sensor_type;location;lat;lon;timestamp;P1;durP1;ratioP1;P2;durP2;ratioP2
9280;SDS011;4679;47.966;7.958;2024-01-16T07:14:16;3.28;;;1.88;;
9280;SDS011;4679;47.966;7.958;2024-01-16T07:16:18;4.10;;;2.10;;
9280;SDS011;4679;47.966;7.958;2024-01-16T07:18:19;2.72;;;1.40;;
9280;SDS011;4679;47.966;7.958;2024-01-16T07:20:20;3.83;;;2.07;;
9280;SDS011;4679;47.966;7.958;2024-01-16T07:22:21;3.40;;;1.52;;
9280;SDS011;4679;47.966;7.958;2024-01-16T07:24:23;4.55;;;1.50;;
9280;SDS011;4679;47.966;7.958;2024-01-16T07:28:26;3.70;;;1.60;;
9280;SDS011;4679;47.966;7.958;2024-01-16T07:30:29;2.83;;;1.80;;
9280;SDS011;4679;47.966;7.958;2024-01-16T07:32:31;2.00;;;1.70;;
9280;SDS011;4679;47.966;7.958;2024-01-16T07:34:32;3.88;;;2.00;;
9280;SDS011;4679;47.966;7.958;2024-01-16T07:36:34;3.78;;;2.15;;
9280;SDS011;4679;47.966;7.958;2024-01-16T07:38:35;5.32;;;2.35;;
9280;SDS011;4679;47.966;7.958;2024-01-16T07:40:37;3.17;;;1.90;;
9280;SDS011;4679;47.966;7.958;2024-01-16T07:42:39;3.03;;;1.77;;
9280;SDS011;4679;47.966;7.958;2024-01-16T07:44:41;5.05;;;2.40;;
9280;SDS011;4679;47.966;7.958;2024-01-16T07:46:44;4.47;;;2.25;;
9280;SDS011;4679;47.966;7.958;2024-01-16T07:48:45;3.53;;;2.13;;
9280;SDS011;4679;47.966;7.958;2024-01-16T07:50:46;6.63;;;2.13;;
9280;SDS011;4679;47.966;7.958;2024-01-16T07:52:47;6.30;;;2.10;;
9280;SDS011;4679;47.966;7.958;2024-01-16T07:54:49;4.35;;;2.85;;
9280;SDS011;4679;47.966;7.958;2024-01-16T07:56:50;5.53;;;3.60;;
9280;SDS011;4679;47.966;7.958;2024-01-16T07:58:52;7.68;;;3.65;;
9280;SDS011;4679;47.966;7.958;2024-01-16T08:00:53;9.25;;;5.18;;
9280;SDS011;4679;47.966;7.958;2024-01-16T08:02:56;9.02;;;5.05;;
9280;SDS011;4679;47.966;7.958;2024-01-16T08:04:58;13.00;;;7.30;;
9280;SDS011;4679;47.966;7.958;2024-01-16T08:07:00;9.30;;;7.03;;
9280;SDS011;4679;47.966;7.958;2024-01-16T08:09:02;10.32;;;6.05;;
9280;SDS011;4679;47.966;7.958;2024-01-16T08:11:03;10.63;;;5.57;;
9280;SDS011;4679;47.966;7.958;2024-01-16T08:13:05;12.43;;;7.70;;
9280;SDS011;4679;47.966;7.958;2024-01-16T08:15:07;13.52;;;8.35;;
9280;SDS011;4679;47.966;7.958;2024-01-16T08:17:08;13.70;;;7.25;;
9280;SDS011;4679;47.966;7.958;2024-01-16T08:19:13;7.95;;;5.90;;
9280;SDS011;4679;47.966;7.958;2024-01-16T08:21:14;5.55;;;4.25;;
9280;SDS011;4679;47.966;7.958;2024-01-16T08:23:16;9.45;;;5.18;;
9280;SDS011;4679;47.966;7.958;2024-01-16T08:25:18;7.65;;;3.22;;
9280;SDS011;4679;47.966;7.958;2024-01-16T08:27:19;4.30;;;2.45;;
9280;SDS011;4679;47.966;7.958;2024-01-16T08:29:21;8.57;;;3.55;;
9280;SDS011;4679;47.966;7.958;2024-01-16T08:31:22;10.00;;;6.20;;
9280;SDS011;4679;47.966;7.958;2024-01-16T08:33:24;10.67;;;5.57;;
9280;SDS011;4679;47.966;7.958;2024-01-16T08:35:26;8.20;;;4.50;;
9280;SDS011;4679;47.966;7.958;2024-01-16T08:37:27;8.20;;;4.30;;
9280;SDS011;4679;47.966;7.958;2024-01-16T08:39:28;4.73;;;3.17;;
9280;SDS011;4679;47.966;7.958;2024-01-16T08:41:33;3.93;;;2.17;;
9280;SDS011;4679;47.966;7.958;2024-01-16T08:43:34;7.00;;;2.88;;
9280;SDS011;4679;47.966;7.958;2024-01-16T08:45:35;5.47;;;3.37;;
9280;SDS011;4679;47.966;7.958;2024-01-16T08:47:37;3.53;;;1.75;;
9280;SDS011;4679;47.966;7.958;2024-01-16T08:49:38;10.20;;;4.50;;
9280;SDS011;4679;47.966;7.958;2024-01-16T08:51:42;10.75;;;4.72;;
9280;SDS011;4679;47.966;7.958;2024-01-16T08:53:43;16.37;;;7.00;;
9280;SDS011;4679;47.966;7.958;2024-01-16T08:55:45;7.03;;;4.00;;
9280;SDS011;4679;47.966;7.958;2024-01-16T08:57:46;7.03;;;3.77;;
9280;SDS011;4679;47.966;7.958;2024-01-16T08:59:48;4.30;;;2.43;;
9280;SDS011;4679;47.966;7.958;2024-01-16T09:01:49;6.27;;;2.57;;
9280;SDS011;4679;47.966;7.958;2024-01-16T09:03:51;4.23;;;2.90;;
9280;SDS011;4679;47.966;7.958;2024-01-16T09:05:52;5.43;;;3.17;;
9280;SDS011;4679;47.966;7.958;2024-01-16T09:07:55;4.67;;;2.47;;
9280;SDS011;4679;47.966;7.958;2024-01-16T09:09:56;4.80;;;2.47;;
9280;SDS011;4679;47.966;7.958;2024-01-16T09:11:57;2.03;;;1.57;;
9280;SDS011;4679;47.966;7.958;2024-01-16T09:13:59;5.90;;;2.00;;
9280;SDS011;4679;47.966;7.958;2024-01-16T09:16:00;3.17;;;1.77;;
9280;SDS011;4679;47.966;7.958;2024-01-16T09:18:02;5.73;;;2.20;;
9280;SDS011;4679;47.966;7.958;2024-01-16T09:20:05;2.53;;;1.80;;
9280;SDS011;4679;47.966;7.958;2024-01-16T09:22:08;3.40;;;1.80;;
9280;SDS011;4679;47.966;7.958;2024-01-16T09:24:10;4.07;;;1.50;;
9280;SDS011;4679;47.966;7.958;2024-01-16T09:26:12;1.63;;;1.53;;
9280;SDS011;4679;47.966;7.958;2024-01-16T09:28:14;1.73;;;1.50;;
9280;SDS011;4679;47.966;7.958;2024-01-16T09:30:16;2.53;;;1.67;;
9280;SDS011;4679;47.966;7.958;2024-01-16T09:32:16;2.93;;;1.70;;
9280;SDS011;4679;47.966;7.958;2024-01-16T09:34:19;2.33;;;1.40;;
9280;SDS011;4679;47.966;7.958;2024-01-16T09:36:20;1.40;;;1.20;;
9280;SDS011;4679;47.966;7.958;2024-01-16T09:38:22;2.60;;;1.67;;
9280;SDS011;4679;47.966;7.958;2024-01-16T09:40:25;2.53;;;1.60;;
9280;SDS011;4679;47.966;7.958;2024-01-16T09:42:27;3.27;;;1.00;;
9280;SDS011;4679;47.966;7.958;2024-01-16T09:44:28;1.63;;;0.90;;
9280;SDS011;4679;47.966;7.958;2024-01-16T09:46:30;5.23;;;1.00;;
9280;SDS011;4679;47.966;7.958;2024-01-16T09:48:32;1.37;;;0.90;;
9280;SDS011;4679;47.966;7.958;2024-01-16T09:50:33;2.70;;;1.00;;
9280;SDS011;4679;47.966;7.958;2024-01-16T09:52:35;2.00;;;1.10;;
9280;SDS011;4679;47.966;7.958;2024-01-16T09:54:36;1.10;;;1.00;;
9280;SDS011;4679;47.966;7.958;2024-01-16T09:56:41;1.60;;;1.03;;
9280;SDS011;4679;47.966;7.958;2024-01-16T09:58:44;1.43;;;1.13;;
9280;SDS011;4679;47.966;7.958;2024-01-16T10:00:49;4.40;;;1.40;;
9280;SDS011;4679;47.966;7.958;2024-01-16T10:02:52;3.23;;;1.53;;
9280;SDS011;4679;47.966;7.958;2024-01-16T10:04:58;1.47;;;1.37;;
9280;SDS011;4679;47.966;7.958;2024-01-16T10:07:00;3.40;;;1.20;;
9280;SDS011;4679;47.966;7.958;2024-01-16T10:09:03;3.03;;;1.43;;
9280;SDS011;4679;47.966;7.958;2024-01-16T10:11:04;2.20;;;1.40;;
9280;SDS011;4679;47.966;7.958;2024-01-16T10:13:07;2.07;;;1.47;;
9280;SDS011;4679;47.966;7.958;2024-01-16T10:15:09;2.03;;;1.43;;
9280;SDS011;4679;47.966;7.958;2024-01-16T10:17:12;4.47;;;1.60;;
9280;SDS011;4679;47.966;7.958;2024-01-16T10:19:17;1.47;;;1.20;;
9280;SDS011;4679;47.966;7.958;2024-01-16T10:21:21;2.63;;;1.07;;
9280;SDS011;4679;47.966;7.958;2024-01-16T10:23:23;1.63;;;1.10;;
9280;SDS011;4679;47.966;7.958;2024-01-16T10:25:25;1.33;;;1.03;;
9280;SDS011;4679;47.966;7.958;2024-01-16T10:27:26;1.23;;;1.10;;
9280;SDS011;4679;47.966;7.958;2024-01-16T10:29:32;2.47;;;0.93;;
9280;SDS011;4679;47.966;7.958;2024-01-16T10:31:33;1.87;;;1.30;;
9280;SDS011;4679;47.966;7.958;2024-01-16T10:33:34;1.80;;;1.37;;
9280;SDS011;4679;47.966;7.958;2024-01-16T10:35:37;1.20;;;1.10;;
9280;SDS011;4679;47.966;7.958;2024-01-16T10:37:42;1.70;;;0.90;;
9280;SDS011;4679;47.966;7.958;2024-01-16T10:39:49;3.00;;;1.27;;
9280;SDS011;4679;47.966;7.958;2024-01-16T10:41:54;1.40;;;1.17;;
9280;SDS011;4679;47.966;7.958;2024-01-16T10:44:03;1.43;;;0.90;;
9280;SDS011;4679;47.966;7.958;2024-01-16T10:46:11;1.60;;;0.87;;
9280;SDS011;4679;47.966;7.958;2024-01-16T10:48:14;0.70;;;0.70;;
9280;SDS011;4679;47.966;7.958;2024-01-16T10:50:16;0.90;;;0.77;;
9280;SDS011;4679;47.966;7.958;2024-01-16T10:52:17;1.00;;;0.80;;
9280;SDS011;4679;47.966;7.958;2024-01-16T10:54:18;2.90;;;0.87;;
9280;SDS011;4679;47.966;7.958;2024-01-16T10:56:22;1.93;;;0.80;;
9280;SDS011;4679;47.966;7.958;2024-01-16T10:58:25;2.93;;;0.90;;
9280;SDS011;4679;47.966;7.958;2024-01-16T11:00:30;2.30;;;0.80;;
9280;SDS011;4679;47.966;7.958;2024-01-16T11:02:38;1.97;;;0.80;;
9280;SDS011;4679;47.966;7.958;2024-01-16T11:04:45;1.27;;;0.97;;
9280;SDS011;4679;47.966;7.958;2024-01-16T11:06:47;1.77;;;0.90;;
9280;SDS011;4679;47.966;7.958;2024-01-16T11:08:53;1.60;;;0.87;;
9280;SDS011;4679;47.966;7.958;2024-01-16T11:10:56;1.27;;;0.70;;
9280;SDS011;4679;47.966;7.958;2024-01-16T11:12:59;1.63;;;0.77;;
9280;SDS011;4679;47.966;7.958;2024-01-16T11:15:03;1.10;;;0.80;;
9280;SDS011;4679;47.966;7.958;2024-01-16T11:17:07;0.80;;;0.60;;
9280;SDS011;4679;47.966;7.958;2024-01-16T11:19:15;1.57;;;0.80;;
9280;SDS011;4679;47.966;7.958;2024-01-16T11:21:18;1.23;;;0.70;;
9280;SDS011;4679;47.966;7.958;2024-01-16T11:23:21;1.73;;;0.50;;
9280;SDS011;4679;47.966;7.958;2024-01-16T11:25:24;2.33;;;0.60;;
9280;SDS011;4679;47.966;7.958;2024-01-16T11:27:32;0.47;;;0.47;;
9280;SDS011;4679;47.966;7.958;2024-01-16T11:29:34;1.00;;;0.60;;
9280;SDS011;4679;47.966;7.958;2024-01-16T11:31:37;0.93;;;0.60;;
9280;SDS011;4679;47.966;7.958;2024-01-16T11:33:41;1.53;;;0.57;;
9280;SDS011;4679;47.966;7.958;2024-01-16T11:35:44;3.53;;;0.50;;
9280;SDS011;4679;47.966;7.958;2024-01-16T11:37:46;1.07;;;0.70;;
9280;SDS011;4679;47.966;7.958;2024-01-16T11:39:47;1.33;;;0.70;;
9280;SDS011;4679;47.966;7.958;2024-01-16T11:41:49;1.37;;;0.80;;
9280;SDS011;4679;47.966;7.958;2024-01-16T11:43:51;2.87;;;0.70;;
9280;SDS011;4679;47.966;7.958;2024-01-16T11:45:53;1.57;;;1.00;;
9280;SDS011;4679;47.966;7.958;2024-01-16T11:48:07;1.70;;;1.20;;
9280;SDS011;4679;47.966;7.958;2024-01-16T11:50:10;2.03;;;0.80;;
9280;SDS011;4679;47.966;7.958;2024-01-16T11:52:15;2.17;;;0.87;;
9280;SDS011;4679;47.966;7.958;2024-01-16T11:54:37;2.37;;;0.90;;
9280;SDS011;4679;47.966;7.958;2024-01-16T12:01:55;2.13;;;1.00;;
9280;SDS011;4679;47.966;7.958;2024-01-16T12:04:04;5.90;;;1.50;;
9280;SDS011;4679;47.966;7.958;2024-01-16T12:06:06;0.80;;;0.73;;
9280;SDS011;4679;47.966;7.958;2024-01-16T12:08:09;2.67;;;0.90;;
9280;SDS011;4679;47.966;7.958;2024-01-16T12:10:12;2.97;;;1.37;;
9280;SDS011;4679;47.966;7.958;2024-01-16T12:12:12;1.93;;;0.97;;
9280;SDS011;4679;47.966;7.958;2024-01-16T12:14:18;2.83;;;1.10;;
9280;SDS011;4679;47.966;7.958;2024-01-16T12:16:19;1.10;;;0.70;;
9280;SDS011;4679;47.966;7.958;2024-01-16T12:18:20;1.67;;;0.90;;
9280;SDS011;4679;47.966;7.958;2024-01-16T12:20:22;1.00;;;0.70;;
9280;SDS011;4679;47.966;7.958;2024-01-16T12:22:25;3.80;;;0.70;;
9280;SDS011;4679;47.966;7.958;2024-01-16T12:24:28;2.27;;;1.00;;
9280;SDS011;4679;47.966;7.958;2024-01-16T12:26:31;1.10;;;0.90;;
9280;SDS011;4679;47.966;7.958;2024-01-16T12:28:33;2.03;;;0.80;;
9280;SDS011;4679;47.966;7.958;2024-01-16T12:30:35;1.30;;;0.80;;
9280;SDS011;4679;47.966;7.958;2024-01-16T12:32:37;1.23;;;0.83;;
9280;SDS011;4679;47.966;7.958;2024-01-16T12:34:48;2.83;;;0.70;;
9280;SDS011;4679;47.966;7.958;2024-01-16T12:36:50;0.70;;;0.70;;
9280;SDS011;4679;47.966;7.958;2024-01-16T12:39:05;4.27;;;0.83;;
9280;SDS011;4679;47.966;7.958;2024-01-16T12:41:12;0.70;;;0.50;;
9280;SDS011;4679;47.966;7.958;2024-01-16T12:43:15;1.00;;;0.70;;
9280;SDS011;4679;47.966;7.958;2024-01-16T12:45:18;1.40;;;0.40;;
9280;SDS011;4679;47.966;7.958;2024-01-16T12:47:19;0.40;;;0.40;;
9280;SDS011;4679;47.966;7.958;2024-01-16T12:49:21;1.13;;;0.57;;
9280;SDS011;4679;47.966;7.958;2024-01-16T12:51:23;1.70;;;0.40;;
9280;SDS011;4679;47.966;7.958;2024-01-16T12:53:25;0.87;;;0.50;;
9280;SDS011;4679;47.966;7.958;2024-01-16T12:55:26;2.87;;;0.80;;
9280;SDS011;4679;47.966;7.958;2024-01-16T12:57:28;0.90;;;0.50;;
9280;SDS011;4679;47.966;7.958;2024-01-16T12:59:31;1.10;;;0.60;;
9280;SDS011;4679;47.966;7.958;2024-01-16T13:01:33;2.57;;;0.70;;
9280;SDS011;4679;47.966;7.958;2024-01-16T13:03:35;1.53;;;1.17;;
9280;SDS011;4679;47.966;7.958;2024-01-16T13:05:37;0.80;;;0.50;;
9280;SDS011;4679;47.966;7.958;2024-01-16T13:07:39;1.23;;;0.60;;
9280;SDS011;4679;47.966;7.958;2024-01-16T13:09:40;1.27;;;0.60;;
9280;SDS011;4679;47.966;7.958;2024-01-16T13:11:46;0.87;;;0.70;;
9280;SDS011;4679;47.966;7.958;2024-01-16T13:13:48;0.93;;;0.50;;
9280;SDS011;4679;47.966;7.958;2024-01-16T13:15:53;1.60;;;0.50;;
9280;SDS011;4679;47.966;7.958;2024-01-16T13:17:53;1.17;;;0.53;;
9280;SDS011;4679;47.966;7.958;2024-01-16T13:19:55;0.73;;;0.50;;
9280;SDS011;4679;47.966;7.958;2024-01-16T13:21:57;0.40;;;0.37;;
9280;SDS011;4679;47.966;7.958;2024-01-16T13:23:58;1.77;;;0.57;;
9280;SDS011;4679;47.966;7.958;2024-01-16T13:25:59;1.70;;;0.50;;
9280;SDS011;4679;47.966;7.958;2024-01-16T13:28:00;1.70;;;0.60;;
9280;SDS011;4679;47.966;7.958;2024-01-16T13:30:02;1.10;;;0.60;;
9280;SDS011;4679;47.966;7.958;2024-01-16T13:32:05;1.80;;;0.60;;
9280;SDS011;4679;47.966;7.958;2024-01-16T13:34:07;0.60;;;0.50;;
9280;SDS011;4679;47.966;7.958;2024-01-16T13:36:09;3.60;;;0.60;;
9280;SDS011;4679;47.966;7.958;2024-01-16T13:38:12;0.93;;;0.40;;
9280;SDS011;4679;47.966;7.958;2024-01-16T13:40:16;3.13;;;0.60;;
9280;SDS011;4679;47.966;7.958;2024-01-16T13:42:19;2.80;;;0.63;;
9280;SDS011;4679;47.966;7.958;2024-01-16T13:44:21;1.67;;;0.70;;
9280;SDS011;4679;47.966;7.958;2024-01-16T13:46:21;0.70;;;0.70;;
9280;SDS011;4679;47.966;7.958;2024-01-16T13:48:24;1.13;;;0.50;;
9280;SDS011;4679;47.966;7.958;2024-01-16T13:50:26;4.53;;;0.80;;
9280;SDS011;4679;47.966;7.958;2024-01-16T13:52:28;0.80;;;0.60;;
9280;SDS011;4679;47.966;7.958;2024-01-16T13:54:30;0.70;;;0.57;;
9280;SDS011;4679;47.966;7.958;2024-01-16T13:56:31;1.10;;;0.70;;
9280;SDS011;4679;47.966;7.958;2024-01-16T13:58:33;1.13;;;0.70;;
9280;SDS011;4679;47.966;7.958;2024-01-16T14:02:39;1.70;;;0.70;;
9280;SDS011;4679;47.966;7.958;2024-01-16T14:04:43;2.43;;;1.20;;
9280;SDS011;4679;47.966;7.958;2024-01-16T14:06:45;1.30;;;1.00;;
9280;SDS011;4679;47.966;7.958;2024-01-16T14:08:46;1.37;;;0.77;;
9280;SDS011;4679;47.966;7.958;2024-01-16T14:10:48;0.87;;;0.60;;
9280;SDS011;4679;47.966;7.958;2024-01-16T14:12:51;0.83;;;0.80;;
9280;SDS011;4679;47.966;7.958;2024-01-16T14:14:53;4.90;;;1.50;;
9280;SDS011;4679;47.966;7.958;2024-01-16T14:16:54;2.43;;;1.50;;
9280;SDS011;4679;47.966;7.958;2024-01-16T14:18:55;2.60;;;1.30;;
9280;SDS011;4679;47.966;7.958;2024-01-16T14:20:59;3.93;;;1.10;;
9280;SDS011;4679;47.966;7.958;2024-01-16T14:23:01;3.30;;;0.90;;
9280;SDS011;4679;47.966;7.958;2024-01-16T14:25:04;1.00;;;0.70;;
9280;SDS011;4679;47.966;7.958;2024-01-16T14:27:10;2.50;;;1.20;;
9280;SDS011;4679;47.966;7.958;2024-01-16T14:29:12;2.80;;;1.27;;
9280;SDS011;4679;47.966;7.958;2024-01-16T14:31:16;3.50;;;1.50;;
9280;SDS011;4679;47.966;7.958;2024-01-16T14:33:17;2.33;;;1.50;;
9280;SDS011;4679;47.966;7.958;2024-01-16T14:35:20;2.67;;;1.63;;
9280;SDS011;4679;47.966;7.958;2024-01-16T14:37:23;3.60;;;1.63;;
9280;SDS011;4679;47.966;7.958;2024-01-16T14:39:26;5.37;;;2.27;;
9280;SDS011;4679;47.966;7.958;2024-01-16T14:41:31;3.70;;;2.33;;
9280;SDS011;4679;47.966;7.958;2024-01-16T14:43:33;5.33;;;1.90;;
9280;SDS011;4679;47.966;7.958;2024-01-16T14:45:34;3.90;;;2.57;;
9280;SDS011;4679;47.966;7.958;2024-01-16T14:47:36;1.70;;;1.50;;
9280;SDS011;4679;47.966;7.958;2024-01-16T14:49:38;6.47;;;1.90;;
9280;SDS011;4679;47.966;7.958;2024-01-16T14:51:40;1.73;;;1.47;;
9280;SDS011;4679;47.966;7.958;2024-01-16T14:53:43;3.30;;;1.60;;
9280;SDS011;4679;47.966;7.958;2024-01-16T14:55:45;1.67;;;1.57;;
9280;SDS011;4679;47.966;7.958;2024-01-16T14:57:47;6.07;;;1.80;;
9280;SDS011;4679;47.966;7.958;2024-01-16T14:59:53;2.73;;;1.00;;
9280;SDS011;4679;47.966;7.958;2024-01-16T15:01:55;3.23;;;0.83;;
9280;SDS011;4679;47.966;7.958;2024-01-16T15:03:56;3.03;;;0.73;;
9280;SDS011;4679;47.966;7.958;2024-01-16T15:05:59;0.90;;;0.63;;
9280;SDS011;4679;47.966;7.958;2024-01-16T15:08:02;1.57;;;0.80;;
9280;SDS011;4679;47.966;7.958;2024-01-16T15:10:06;2.53;;;0.93;;
9280;SDS011;4679;47.966;7.958;2024-01-16T15:12:09;1.70;;;1.10;;
9280;SDS011;4679;47.966;7.958;2024-01-16T15:14:13;1.73;;;0.90;;
9280;SDS011;4679;47.966;7.958;2024-01-16T15:16:17;2.17;;;1.03;;
9280;SDS011;4679;47.966;7.958;2024-01-16T15:18:19;1.20;;;1.00;;
9280;SDS011;4679;47.966;7.958;2024-01-16T15:20:21;1.93;;;1.00;;
9280;SDS011;4679;47.966;7.958;2024-01-16T15:22:24;3.80;;;1.00;;
9280;SDS011;4679;47.966;7.958;2024-01-16T15:24:26;1.30;;;1.00;;
9280;SDS011;4679;47.966;7.958;2024-01-16T15:26:30;1.50;;;1.13;;
9280;SDS011;4679;47.966;7.958;2024-01-16T15:28:32;5.93;;;1.50;;
9280;SDS011;4679;47.966;7.958;2024-01-16T15:30:34;4.37;;;2.93;;
9280;SDS011;4679;47.966;7.958;2024-01-16T15:32:36;7.07;;;2.40;;
9280;SDS011;4679;47.966;7.958;2024-01-16T15:34:38;7.47;;;2.50;;
9280;SDS011;4679;47.966;7.958;2024-01-16T15:36:41;2.23;;;1.40;;
9280;SDS011;4679;47.966;7.958;2024-01-16T15:38:42;3.50;;;1.60;;
9280;SDS011;4679;47.966;7.958;2024-01-16T15:40:46;3.30;;;1.30;;
9280;SDS011;4679;47.966;7.958;2024-01-16T15:42:49;4.67;;;1.57;;
9280;SDS011;4679;47.966;7.958;2024-01-16T15:44:50;4.03;;;1.30;;
9280;SDS011;4679;47.966;7.958;2024-01-16T15:46:54;3.40;;;1.30;;
9280;SDS011;4679;47.966;7.958;2024-01-16T15:48:57;2.13;;;1.30;;
9280;SDS011;4679;47.966;7.958;2024-01-16T15:50:59;3.60;;;2.00;;
9280;SDS011;4679;47.966;7.958;2024-01-16T15:53:02;2.90;;;1.37;;
9280;SDS011;4679;47.966;7.958;2024-01-16T15:55:05;2.60;;;1.40;;
9280;SDS011;4679;47.966;7.958;2024-01-16T15:57:07;2.57;;;1.50;;
9280;SDS011;4679;47.966;7.958;2024-01-16T15:59:10;1.80;;;1.60;;
9280;SDS011;4679;47.966;7.958;2024-01-16T16:01:11;4.50;;;1.50;;
9280;SDS011;4679;47.966;7.958;2024-01-16T16:03:12;2.33;;;1.80;;
9280;SDS011;4679;47.966;7.958;2024-01-16T16:05:14;2.17;;;1.40;;
9280;SDS011;4679;47.966;7.958;2024-01-16T16:07:16;2.10;;;1.73;;
9280;SDS011;4679;47.966;7.958;2024-01-16T16:09:19;4.43;;;2.27;;
9280;SDS011;4679;47.966;7.958;2024-01-16T16:11:20;3.63;;;2.20;;
9280;SDS011;4679;47.966;7.958;2024-01-16T16:13:22;4.00;;;2.20;;
9280;SDS011;4679;47.966;7.958;2024-01-16T16:15:25;4.87;;;2.83;;
9280;SDS011;4679;47.966;7.958;2024-01-16T16:17:26;4.17;;;2.73;;
9280;SDS011;4679;47.966;7.958;2024-01-16T16:19:28;3.73;;;2.53;;
9280;SDS011;4679;47.966;7.958;2024-01-16T16:21:30;6.37;;;3.20;;
9280;SDS011;4679;47.966;7.958;2024-01-16T16:23:31;2.53;;;2.33;;
9280;SDS011;4679;47.966;7.958;2024-01-16T16:25:33;5.33;;;2.90;;
9280;SDS011;4679;47.966;7.958;2024-01-16T16:27:35;7.97;;;4.03;;
9280;SDS011;4679;47.966;7.958;2024-01-16T16:29:35;5.20;;;3.57;;
9280;SDS011;4679;47.966;7.958;2024-01-16T16:31:39;6.70;;;3.23;;
9280;SDS011;4679;47.966;7.958;2024-01-16T16:33:41;3.57;;;2.90;;
9280;SDS011;4679;47.966;7.958;2024-01-16T16:35:42;4.80;;;3.50;;
9280;SDS011;4679;47.966;7.958;2024-01-16T16:37:45;4.63;;;2.33;;
9280;SDS011;4679;47.966;7.958;2024-01-16T16:39:46;3.77;;;2.53;;
9280;SDS011;4679;47.966;7.958;2024-01-16T16:41:48;4.07;;;2.80;;
9280;SDS011;4679;47.966;7.958;2024-01-16T16:43:51;2.33;;;1.80;;
9280;SDS011;4679;47.966;7.958;2024-01-16T16:45:54;5.63;;;2.40;;
9280;SDS011;4679;47.966;7.958;2024-01-16T16:47:56;5.63;;;2.47;;
9280;SDS011;4679;47.966;7.958;2024-01-16T16:49:58;3.33;;;2.00;;
9280;SDS011;4679;47.966;7.958;2024-01-16T16:51:59;3.30;;;2.50;;
9280;SDS011;4679;47.966;7.958;2024-01-16T16:54:01;5.50;;;2.60;;
9280;SDS011;4679;47.966;7.958;2024-01-16T16:56:02;8.67;;;2.17;;
9280;SDS011;4679;47.966;7.958;2024-01-16T16:58:04;4.27;;;1.80;;
9280;SDS011;4679;47.966;7.958;2024-01-16T17:00:08;8.23;;;2.50;;
9280;SDS011;4679;47.966;7.958;2024-01-16T17:02:13;5.20;;;2.50;;
9280;SDS011;4679;47.966;7.958;2024-01-16T17:04:16;3.77;;;2.17;;
9280;SDS011;4679;47.966;7.958;2024-01-16T17:06:18;3.00;;;2.30;;
9280;SDS011;4679;47.966;7.958;2024-01-16T17:08:20;3.53;;;2.60;;
9280;SDS011;4679;47.966;7.958;2024-01-16T17:10:22;4.40;;;2.60;;
9280;SDS011;4679;47.966;7.958;2024-01-16T17:12:27;3.53;;;2.47;;
9280;SDS011;4679;47.966;7.958;2024-01-16T17:14:28;5.77;;;2.77;;
9280;SDS011;4679;47.966;7.958;2024-01-16T17:16:30;7.40;;;2.87;;
9280;SDS011;4679;47.966;7.958;2024-01-16T17:18:31;6.73;;;3.13;;
9280;SDS011;4679;47.966;7.958;2024-01-16T17:20:36;5.53;;;3.23;;
9280;SDS011;4679;47.966;7.958;2024-01-16T17:22:37;5.67;;;3.37;;
9280;SDS011;4679;47.966;7.958;2024-01-16T17:24:39;2.83;;;2.20;;
9280;SDS011;4679;47.966;7.958;2024-01-16T17:26:40;3.87;;;2.33;;
9280;SDS011;4679;47.966;7.958;2024-01-16T17:28:43;3.77;;;2.17;;
9280;SDS011;4679;47.966;7.958;2024-01-16T17:30:45;4.13;;;2.30;;
9280;SDS011;4679;47.966;7.958;2024-01-16T17:32:46;2.83;;;2.40;;
9280;SDS011;4679;47.966;7.958;2024-01-16T17:34:48;5.63;;;2.53;;
9280;SDS011;4679;47.966;7.958;2024-01-16T17:36:51;4.50;;;2.90;;
9280;SDS011;4679;47.966;7.958;2024-01-16T17:38:52;4.87;;;3.10;;
9280;SDS011;4679;47.966;7.958;2024-01-16T17:40:58;6.27;;;3.27;;
9280;SDS011;4679;47.966;7.958;2024-01-16T17:43:01;6.80;;;3.00;;
9280;SDS011;4679;47.966;7.958;2024-01-16T17:45:03;4.20;;;3.33;;
9280;SDS011;4679;47.966;7.958;2024-01-16T17:47:07;6.10;;;3.87;;
9280;SDS011;4679;47.966;7.958;2024-01-16T17:49:08;7.03;;;4.10;;
9280;SDS011;4679;47.966;7.958;2024-01-16T17:51:09;4.10;;;3.17;;
9280;SDS011;4679;47.966;7.958;2024-01-16T17:53:12;14.27;;;3.57;;
9280;SDS011;4679;47.966;7.958;2024-01-16T17:55:15;5.43;;;2.90;;
9280;SDS011;4679;47.966;7.958;2024-01-16T17:57:17;5.33;;;3.50;;
9280;SDS011;4679;47.966;7.958;2024-01-16T17:59:19;7.10;;;3.70;;
9280;SDS011;4679;47.966;7.958;2024-01-16T18:01:21;5.40;;;3.20;;
9280;SDS011;4679;47.966;7.958;2024-01-16T18:03:22;5.37;;;3.53;;
9280;SDS011;4679;47.966;7.958;2024-01-16T18:05:28;3.43;;;3.13;;
9280;SDS011;4679;47.966;7.958;2024-01-16T18:07:29;7.37;;;3.43;;
9280;SDS011;4679;47.966;7.958;2024-01-16T18:09:32;3.63;;;2.90;;
9280;SDS011;4679;47.966;7.958;2024-01-16T18:13:55;4.97;;;3.47;;
9280;SDS011;4679;47.966;7.958;2024-01-16T18:15:56;4.77;;;3.50;;
9280;SDS011;4679;47.966;7.958;2024-01-16T18:17:58;5.53;;;3.40;;
9280;SDS011;4679;47.966;7.958;2024-01-16T18:19:59;4.10;;;3.17;;
9280;SDS011;4679;47.966;7.958;2024-01-16T18:22:01;5.33;;;3.40;;
9280;SDS011;4679;47.966;7.958;2024-01-16T18:24:06;9.13;;;4.10;;
9280;SDS011;4679;47.966;7.958;2024-01-16T18:26:11;5.00;;;3.60;;
9280;SDS011;4679;47.966;7.958;2024-01-16T18:28:13;5.30;;;4.47;;
9280;SDS011;4679;47.966;7.958;2024-01-16T18:30:13;8.87;;;4.63;;
9280;SDS011;4679;47.966;7.958;2024-01-16T18:32:16;5.90;;;3.87;;
9280;SDS011;4679;47.966;7.958;2024-01-16T18:34:17;6.87;;;3.90;;
9280;SDS011;4679;47.966;7.958;2024-01-16T18:36:21;8.17;;;5.10;;
9280;SDS011;4679;47.966;7.958;2024-01-16T18:38:23;5.47;;;3.60;;
9280;SDS011;4679;47.966;7.958;2024-01-16T18:40:23;8.17;;;4.00;;
9280;SDS011;4679;47.966;7.958;2024-01-16T18:42:27;6.47;;;3.70;;
9280;SDS011;4679;47.966;7.958;2024-01-16T18:44:28;11.03;;;6.13;;
9280;SDS011;4679;47.966;7.958;2024-01-16T18:46:30;15.23;;;7.67;;
9280;SDS011;4679;47.966;7.958;2024-01-16T18:48:33;8.97;;;6.27;;
9280;SDS011;4679;47.966;7.958;2024-01-16T18:50:34;8.50;;;5.80;;
9280;SDS011;4679;47.966;7.958;2024-01-16T18:52:36;8.90;;;5.53;;
9280;SDS011;4679;47.966;7.958;2024-01-16T18:54:39;10.93;;;5.10;;
9280;SDS011;4679;47.966;7.958;2024-01-16T18:56:41;4.50;;;4.07;;
9280;SDS011;4679;47.966;7.958;2024-01-16T18:58:44;7.13;;;4.27;;
9280;SDS011;4679;47.966;7.958;2024-01-16T19:00:46;5.80;;;4.20;;
9280;SDS011;4679;47.966;7.958;2024-01-16T19:02:50;6.77;;;4.77;;
9280;SDS011;4679;47.966;7.958;2024-01-16T19:04:52;6.97;;;4.80;;
9280;SDS011;4679;47.966;7.958;2024-01-16T19:06:52;8.23;;;5.07;;
9280;SDS011;4679;47.966;7.958;2024-01-16T19:08:54;8.27;;;5.53;;
9280;SDS011;4679;47.966;7.958;2024-01-16T19:10:56;13.17;;;6.90;;
9280;SDS011;4679;47.966;7.958;2024-01-16T19:12:57;5.70;;;4.17;;
9280;SDS011;4679;47.966;7.958;2024-01-16T19:15:00;9.97;;;6.70;;
9280;SDS011;4679;47.966;7.958;2024-01-16T19:17:01;10.00;;;5.97;;
9280;SDS011;4679;47.966;7.958;2024-01-16T19:19:03;9.70;;;5.77;;
9280;SDS011;4679;47.966;7.958;2024-01-16T19:21:05;9.10;;;6.03;;
9280;SDS011;4679;47.966;7.958;2024-01-16T19:23:07;8.43;;;5.93;;
9280;SDS011;4679;47.966;7.958;2024-01-16T19:25:10;8.00;;;5.37;;
9280;SDS011;4679;47.966;7.958;2024-01-16T19:27:11;6.07;;;4.50;;
9280;SDS011;4679;47.966;7.958;2024-01-16T19:29:13;7.27;;;5.27;;
9280;SDS011;4679;47.966;7.958;2024-01-16T19:31:16;6.83;;;4.33;;
9280;SDS011;4679;47.966;7.958;2024-01-16T19:33:18;7.00;;;5.10;;
9280;SDS011;4679;47.966;7.958;2024-01-16T19:35:19;13.77;;;7.23;;
9280;SDS011;4679;47.966;7.958;2024-01-16T19:37:21;9.00;;;5.87;;
9280;SDS011;4679;47.966;7.958;2024-01-16T19:39:23;9.10;;;6.07;;
9280;SDS011;4679;47.966;7.958;2024-01-16T19:41:25;7.73;;;5.20;;
9280;SDS011;4679;47.966;7.958;2024-01-16T19:43:26;7.07;;;5.30;;
9280;SDS011;4679;47.966;7.958;2024-01-16T19:45:28;10.63;;;5.67;;
9280;SDS011;4679;47.966;7.958;2024-01-16T19:47:31;16.17;;;8.93;;
9280;SDS011;4679;47.966;7.958;2024-01-16T19:49:35;18.13;;;9.83;;
9280;SDS011;4679;47.966;7.958;2024-01-16T19:51:38;14.87;;;8.93;;
9280;SDS011;4679;47.966;7.958;2024-01-16T19:53:39;15.83;;;9.53;;
9280;SDS011;4679;47.966;7.958;2024-01-16T19:55:41;20.00;;;9.00;;
9280;SDS011;4679;47.966;7.958;2024-01-16T19:57:43;12.60;;;7.70;;
9280;SDS011;4679;47.966;7.958;2024-01-16T19:59:44;11.53;;;7.93;;
9280;SDS011;4679;47.966;7.958;2024-01-16T20:01:45;12.47;;;6.97;;
9280;SDS011;4679;47.966;7.958;2024-01-16T20:03:47;11.70;;;7.57;;
9280;SDS011;4679;47.966;7.958;2024-01-16T20:05:49;12.90;;;8.07;;